Time;durP1;ratioP1;P1;durP2;ratioP2;P2;SDS_P1;SDS_P2;PMS_P1;PMS_P2;Temp;Humidity;BMP_temperature;BMP_pressure;BME280_temperature;BME280_humidity;BME280_pressure;Samples;Min_cycle;Max_cycle;Signal;HPM_P1;HPM_P2
2023/05/28 00:00:10;;;;;;;8.48;3.00;;;;;;;17.86;79.38;99365.31;3147517;28;20059;-70
2023/05/28 00:01:42;;;;;;;5.15;2.85;;;;;;;17.92;79.13;99380.66;3141236;28;20133;-69
2023/05/28 00:03:17;;;;;;;5.00;2.90;;;;;;;17.95;79.06;99374.28;3128662;28;20111;-70
2023/05/28 00:04:49;;;;;;;6.57;3.00;;;;;;;17.94;78.84;99368.16;3141069;28;20060;-69
2023/05/28 00:06:20;;;;;;;3.95;2.90;;;;;;;17.95;78.74;99366.38;3153073;28;20101;-69
2023/05/28 00:07:52;;;;;;;3.85;2.88;;;;;;;17.95;78.72;99375.13;3153682;28;20137;-69
2023/05/28 00:09:24;;;;;;;4.07;2.65;;;;;;;17.96;78.64;99379.44;3143038;28;20223;-70
2023/05/28 00:10:59;;;;;;;4.43;2.70;;;;;;;17.95;78.64;99382.19;3143345;28;20060;-69
2023/05/28 00:12:31;;;;;;;7.78;3.28;;;;;;;17.93;78.43;99379.69;3150755;28;20055;-69
2023/05/28 00:14:04;;;;;;;4.45;2.78;;;;;;;17.95;78.46;99388.31;3153363;28;20051;-69
2023/05/28 00:15:37;;;;;;;3.63;2.80;;;;;;;17.95;78.26;99388.31;3145133;28;20075;-69
2023/05/28 00:17:09;;;;;;;6.10;2.97;;;;;;;17.92;78.34;99387.69;3141106;28;20585;-69
2023/05/28 00:18:41;;;;;;;6.47;3.40;;;;;;;17.94;78.10;99389.25;3141233;28;20510;-70
2023/05/28 00:20:13;;;;;;;5.45;3.17;;;;;;;17.97;78.14;99382.91;3147138;28;20511;-69
2023/05/28 00:21:44;;;;;;;5.00;2.75;;;;;;;17.96;78.23;99384.69;3144820;28;20044;-69
2023/05/28 00:23:16;;;;;;;9.43;3.22;;;;;;;17.95;78.30;99375.13;3146089;28;20048;-69
2023/05/28 00:24:47;;;;;;;3.72;2.78;;;;;;;17.98;78.41;99381.91;3145176;28;20131;-69
2023/05/28 00:26:19;;;;;;;4.57;3.20;;;;;;;17.97;78.47;99380.25;3140755;28;20503;-69
2023/05/28 00:27:50;;;;;;;5.20;3.03;;;;;;;18.02;78.59;99378.09;3143426;28;20097;-69
2023/05/28 00:29:24;;;;;;;5.78;3.05;;;;;;;18.02;78.57;99380.72;3153212;28;20602;-69
2023/05/28 00:30:57;;;;;;;6.47;3.40;;;;;;;18.03;78.48;99374.47;3151688;28;20461;-69
2023/05/28 00:32:29;;;;;;;7.05;3.45;;;;;;;18.01;78.60;99376.41;3141785;28;20106;-69
2023/05/28 00:34:01;;;;;;;8.35;3.83;;;;;;;18.00;78.84;99382.63;3134817;28;20052;-69
2023/05/28 00:35:33;;;;;;;10.98;4.32;;;;;;;18.00;78.43;99382.63;3140854;28;20056;-69
2023/05/28 00:37:04;;;;;;;3.55;2.72;;;;;;;18.01;78.69;99379.03;3140643;28;20059;-69
2023/05/28 00:38:36;;;;;;;5.25;3.13;;;;;;;18.00;78.58;99380.00;3149519;28;20093;-69
2023/05/28 00:40:09;;;;;;;4.55;3.08;;;;;;;18.01;78.61;99380.84;3141687;28;20056;-70
2023/05/28 00:41:41;;;;;;;7.13;3.55;;;;;;;18.00;78.63;99377.38;3151534;28;20048;-69
2023/05/28 00:43:13;;;;;;;5.28;2.72;;;;;;;18.00;78.54;99379.19;3141450;28;20056;-69
2023/05/28 00:44:44;;;;;;;5.97;3.28;;;;;;;17.96;78.53;99371.53;3140554;28;20106;-69
2023/05/28 00:46:21;;;;;;;4.78;2.88;;;;;;;18.00;78.45;99373.91;3148915;28;20136;-69
2023/05/28 00:47:53;;;;;;;4.15;2.75;;;;;;;17.93;78.32;99377.06;3144887;28;20111;-69
2023/05/28 00:49:25;;;;;;;3.67;2.80;;;;;;;17.87;78.23;99374.91;3140680;28;20052;-69
2023/05/28 00:50:58;;;;;;;5.43;2.60;;;;;;;17.86;78.26;99361.88;3141227;28;20052;-69
2023/05/28 00:52:29;;;;;;;;;;;;;;;17.70;78.38;99371.00;3140073;28;20079;-69
2023/05/28 00:54:01;;;;;;;4.75;3.00;;;;;;;17.77;78.58;99371.31;3150627;28;19926;-69
2023/05/28 00:55:33;;;;;;;3.40;2.70;;;;;;;17.83;78.19;99362.94;3145742;28;20143;-68
2023/05/28 00:57:05;;;;;;;7.78;2.97;;;;;;;17.86;77.97;99369.75;3147536;28;20056;-70
2023/05/28 00:58:39;;;;;;;4.25;2.60;;;;;;;17.85;77.91;99360.19;3157264;28;20553;-69
2023/05/28 01:00:18;;;;;;;5.90;2.55;;;;;;;17.87;77.96;99358.28;3144910;28;20131;-69
2023/05/28 01:01:53;;;;;;;9.50;2.85;;;;;;;17.85;78.16;99350.50;3145637;28;20514;-69
2023/05/28 01:03:25;;;;;;;4.25;2.70;;;;;;;17.83;78.35;99352.41;3146102;28;20129;-69
2023/05/28 01:04:56;;;;;;;6.15;2.95;;;;;;;17.82;78.47;99356.03;3158193;28;20058;-68
2023/05/28 01:06:29;;;;;;;3.25;2.63;;;;;;;17.81;78.41;99346.44;3145470;28;20536;-71
2023/05/28 01:08:00;;;;;;;4.10;2.72;;;;;;;17.82;78.51;99356.03;3145231;28;20078;-69
2023/05/28 01:09:32;;;;;;;3.53;2.70;;;;;;;17.83;78.52;99356.84;3156995;28;20787;-68
2023/05/28 01:11:03;;;;;;;4.35;2.67;;;;;;;17.81;78.35;99356.16;3157962;28;20048;-68
2023/05/28 01:12:39;;;;;;;4.90;2.85;;;;;;;17.83;78.35;99355.03;3158212;28;20086;-67
2023/05/28 01:14:12;;;;;;;4.45;2.70;;;;;;;17.82;78.12;99347.28;3157690;28;20048;-69
2023/05/28 01:15:45;;;;;;;6.22;3.17;;;;;;;17.83;78.14;99346.31;3157927;28;20113;-68
2023/05/28 01:17:18;;;;;;;3.50;2.33;;;;;;;17.83;77.96;99348.94;3158201;28;20131;-69
2023/05/28 01:18:54;;;;;;;5.85;2.40;;;;;;;17.80;78.12;99347.41;3149524;28;20317;-69
2023/05/28 01:20:28;;;;;;;4.07;2.80;;;;;;;17.79;78.02;99340.47;3145291;28;20536;-69
2023/05/28 01:22:04;;;;;;;10.77;2.95;;;;;;;17.68;78.05;99327.31;3152796;28;20059;-69
2023/05/28 01:23:41;;;;;;;6.40;2.67;;;;;;;17.81;77.88;99343.81;3146927;28;20429;-70
2023/05/28 01:25:14;;;;;;;4.72;2.50;;;;;;;17.76;77.94;99339.84;3152720;28;20180;-69
2023/05/28 01:26:46;;;;;;;4.70;2.42;;;;;;;17.74;77.99;99329.44;3157678;28;20052;-68
2023/05/28 01:28:18;;;;;;;3.58;2.50;;;;;;;17.74;77.91;99337.34;3157829;28;20070;-69
2023/05/28 01:29:50;;;;;;;6.28;2.83;;;;;;;17.75;78.09;99328.50;3151007;28;20056;-69
2023/05/28 01:31:22;;;;;;;5.18;2.35;;;;;;;17.76;77.90;99331.97;3150306;28;20044;-68
2023/05/28 01:32:54;;;;;;;4.18;2.50;;;;;;;17.73;77.85;99333.03;3153637;28;20048;-69
2023/05/28 01:34:25;;;;;;;3.88;2.50;;;;;;;17.76;77.85;99334.59;3148702;28;20044;-68
2023/05/28 01:36:00;;;;;;;5.47;2.58;;;;;;;17.76;77.59;99330.16;3154039;28;20517;-69
2023/05/28 01:37:33;;;;;;;7.85;2.92;;;;;;;17.74;77.67;99332.06;3153820;28;20053;-69
2023/05/28 01:39:08;;;;;;;4.63;2.60;;;;;;;17.71;77.50;99327.88;3155640;28;20052;-68
2023/05/28 01:40:41;;;;;;;6.20;2.35;;;;;;;17.76;77.35;99334.59;3146483;28;20084;-69
2023/05/28 01:42:13;;;;;;;3.47;2.22;;;;;;;17.74;77.03;99338.16;3155272;28;20060;-69
2023/05/28 01:43:46;;;;;;;11.20;3.03;;;;;;;17.74;76.67;99335.53;3157628;28;20047;-69
2023/05/28 01:45:19;;;;;;;4.30;2.80;;;;;;;17.76;76.38;99340.69;3158076;28;20052;-69
2023/05/28 01:46:52;;;;;;;5.07;2.47;;;;;;;17.78;76.17;99341.44;3144837;28;20056;-69
2023/05/28 01:48:25;;;;;;;3.88;2.30;;;;;;;17.79;76.24;99343.09;3145322;28;20055;-69
2023/05/28 01:49:57;;;;;;;3.65;2.22;;;;;;;17.76;76.04;99338.06;3144446;28;20048;-69
2023/05/28 01:51:28;;;;;;;4.43;2.60;;;;;;;17.81;75.91;99332.47;3143421;28;20059;-69
2023/05/28 01:53:00;;;;;;;4.57;2.92;;;;;;;17.81;75.58;99349.09;3141537;28;20045;-70
2023/05/28 01:54:33;;;;;;;8.02;2.13;;;;;;;17.82;75.48;99342.84;3147854;28;20169;-69
2023/05/28 01:56:06;;;;;;;6.80;2.63;;;;;;;17.79;75.46;99342.28;3143759;28;20093;-69
2023/05/28 01:57:38;;;;;;;4.28;2.40;;;;;;;17.78;75.27;99338.81;3145092;28;20048;-69
2023/05/28 01:59:10;;;;;;;4.95;2.25;;;;;;;17.78;75.14;99336.19;3150812;28;20047;-69
2023/05/28 02:00:47;;;;;;;3.67;2.10;;;;;;;17.81;74.88;99337.72;3151265;28;20044;-68
2023/05/28 02:02:22;;;;;;;4.65;2.60;;;;;;;17.78;74.81;99330.91;3151223;28;20583;-68
2023/05/28 02:03:53;;;;;;;4.18;2.25;;;;;;;17.81;74.60;99341.19;3142110;28;20134;-68
2023/05/28 02:05:25;;;;;;;4.13;2.50;;;;;;;17.83;74.47;99343.69;3153900;28;20063;-68
2023/05/28 02:06:56;;;;;;;5.13;2.22;;;;;;;17.82;74.16;99340.22;3148184;28;20066;-69
2023/05/28 02:08:28;;;;;;;4.95;2.40;;;;;;;17.82;73.87;99340.22;3155195;28;20048;-68
2023/05/28 02:10:01;;;;;;;8.50;2.42;;;;;;;17.86;73.84;99343.41;3144715;28;20075;-68
2023/05/28 02:11:33;;;;;;;3.17;2.30;;;;;;;17.83;73.83;99339.25;3145397;28;20075;-69
2023/05/28 02:13:05;;;;;;;3.25;2.03;;;;;;;17.84;73.70;99333.03;3144695;28;20053;-69
2023/05/28 02:14:37;;;;;;;7.75;2.38;;;;;;;17.85;73.71;99331.22;3139539;28;20049;-69
2023/05/28 02:16:10;;;;;;;3.25;2.38;;;;;;;17.85;73.26;99323.31;3144425;28;20056;-69
2023/05/28 02:17:43;;;;;;;5.45;2.03;;;;;;;17.83;73.41;99320.81;3156508;28;20506;-69
2023/05/28 02:19:16;;;;;;;4.88;2.00;;;;;;;17.83;73.43;99330.50;3146388;28;20102;-68
2023/05/28 02:20:48;;;;;;;3.17;2.22;;;;;;;17.83;73.23;99328.69;3144528;28;20060;-68
2023/05/28 02:22:19;;;;;;;4.13;2.30;;;;;;;17.85;73.02;99337.31;3145036;28;20437;-68
2023/05/28 02:23:52;;;;;;;5.15;2.28;;;;;;;17.86;72.87;99325.00;3145119;28;20045;-69
2023/05/28 02:25:25;;;;;;;4.53;2.05;;;;;;;17.87;72.70;99326.69;3153113;28;20052;-69
2023/05/28 02:26:57;;;;;;;3.53;2.63;;;;;;;17.83;72.51;99314.72;3140179;28;20056;-69
2023/05/28 02:28:28;;;;;;;2.67;2.00;;;;;;;17.85;72.40;99328.59;3152032;28;20048;-69
2023/05/28 02:30:00;;;;;;;4.35;2.30;;;;;;;17.83;72.26;99314.72;3149813;28;20106;-69
2023/05/28 02:31:32;;;;;;;5.05;2.35;;;;;;;17.85;72.15;99315.41;3145137;28;20044;-68
2023/05/28 02:33:04;;;;;;;4.90;2.30;;;;;;;17.82;71.97;99329.69;3149220;28;20505;-69
2023/05/28 02:34:38;;;;;;;5.38;2.47;;;;;;;17.82;71.78;99319.16;3157605;28;20105;-69
2023/05/28 02:36:12;;;;;;;4.72;2.28;;;;;;;17.85;71.72;99328.59;3149135;28;20090;-68
2023/05/28 02:37:43;;;;;;;5.82;2.63;;;;;;;17.86;71.71;99325.00;3144804;28;20190;-69
2023/05/28 02:39:15;;;;;;;2.97;2.13;;;;;;;17.85;71.64;99320.69;3144865;28;20056;-69
2023/05/28 02:40:47;;;;;;;5.55;2.92;;;;;;;17.87;71.48;99322.25;3144642;28;20048;-69
2023/05/28 02:42:19;;;;;;;3.40;2.22;;;;;;;17.85;71.56;99323.31;3145087;28;20106;-69
2023/05/28 02:43:51;;;;;;;4.20;2.40;;;;;;;17.88;71.44;99323.06;3148633;28;20561;-68
2023/05/28 02:45:22;;;;;;;2.95;2.30;;;;;;;17.88;71.49;99323.06;3139796;28;20053;-69
2023/05/28 02:46:53;;;;;;;6.90;2.50;;;;;;;17.88;71.60;99328.34;3151193;28;20116;-69
2023/05/28 02:48:26;;;;;;;4.22;2.33;;;;;;;17.87;71.23;99332.78;3151833;28;20661;-69
2023/05/28 02:49:58;;;;;;;3.03;2.08;;;;;;;17.88;71.25;99333.59;3150360;28;20056;-69
2023/05/28 02:51:30;;;;;;;4.03;2.72;;;;;;;17.91;71.05;99344.72;3141746;28;20048;-69
2023/05/28 02:53:01;;;;;;;4.15;2.42;;;;;;;17.94;70.95;99349.72;3148058;28;20417;-69
2023/05/28 02:54:33;;;;;;;4.32;2.80;;;;;;;17.98;71.06;99344.22;3146975;28;20147;-69
2023/05/28 02:56:07;;;;;;;4.07;2.50;;;;;;;18.01;71.03;99349.22;3139318;28;20051;-69
2023/05/28 02:57:37;;;;;;;;;;;;;;;17.82;71.43;99345.47;3139668;28;20488;-69
2023/05/28 02:59:09;;;;;;;5.07;2.03;;;;;;;17.88;71.68;99352.03;3139585;28;20015;-69
2023/05/28 03:00:41;;;;;;;6.70;2.42;;;;;;;17.96;71.57;99349.63;3143954;28;20059;-69
2023/05/28 03:02:13;;;;;;;4.25;2.15;;;;;;;18.01;71.56;99355.31;3149218;28;20611;-70
2023/05/28 03:03:45;;;;;;;4.15;2.58;;;;;;;18.04;71.50;99357.69;3141977;28;20056;-68
2023/05/28 03:05:16;;;;;;;3.67;2.65;;;;;;;18.07;71.58;99362.75;3141748;28;20097;-69
2023/05/28 03:06:47;;;;;;;5.18;2.38;;;;;;;18.13;71.71;99371.91;3143029;28;20175;-68
2023/05/28 03:08:20;;;;;;;6.38;2.72;;;;;;;18.15;71.85;99370.81;3154290;28;20055;-68
2023/05/28 03:09:51;;;;;;;6.40;2.80;;;;;;;18.17;71.90;99376.81;3154754;28;20131;-69
2023/05/28 03:11:24;;;;;;;4.50;2.88;;;;;;;18.20;71.96;99375.72;3154549;28;20064;-69
2023/05/28 03:12:56;;;;;;;5.20;2.70;;;;;;;18.17;72.14;99373.34;3154103;28;20386;-69
2023/05/28 03:14:28;;;;;;;5.05;2.78;;;;;;;18.18;72.25;99375.84;3154450;28;20063;-69
2023/05/28 03:16:00;;;;;;;4.38;3.00;;;;;;;18.21;72.34;99372.13;3143426;28;20532;-69
2023/05/28 03:17:32;;;;;;;5.55;3.10;;;;;;;18.23;72.50;99378.09;3141620;28;20114;-69
2023/05/28 03:19:04;;;;;;;5.55;3.38;;;;;;;18.25;72.45;99372.69;3141293;28;20053;-69
2023/05/28 03:20:36;;;;;;;7.93;3.17;;;;;;;18.25;72.65;99372.69;3137741;28;20465;-68
2023/05/28 03:22:07;;;;;;;7.75;3.20;;;;;;;18.28;72.51;99369.78;3145056;28;20045;-68
2023/05/28 03:23:39;;;;;;;6.32;3.70;;;;;;;18.29;72.84;99379.38;3141899;28;20060;-69
2023/05/28 03:25:11;;;;;;;6.05;3.42;;;;;;;18.31;72.97;99375.66;3141521;28;20545;-69
2023/05/28 03:26:44;;;;;;;6.07;3.63;;;;;;;18.33;72.93;99370.25;3146772;28;20052;-69
2023/05/28 03:28:16;;;;;;;;;;;;;;;18.14;73.24;99370.97;3149392;28;20598;-69
2023/05/28 03:29:48;;;;;;;7.13;3.00;;;;;;;18.19;73.58;99377.53;3145518;28;19961;-69
2023/05/28 03:31:20;;;;;;;4.72;3.20;;;;;;;18.24;73.89;99379.75;3154379;28;20056;-69
2023/05/28 03:32:52;;;;;;;5.53;3.35;;;;;;;18.24;73.89;99381.56;3154146;28;20048;-69
2023/05/28 03:34:23;;;;;;;5.50;3.28;;;;;;;18.22;74.12;99380.84;3147572;28;20445;-69
2023/05/28 03:35:55;;;;;;;6.47;3.55;;;;;;;18.24;74.60;99390.31;3141124;28;20052;-69
2023/05/28 03:37:27;;;;;;;4.95;3.72;;;;;;;18.25;74.67;99388.50;3141907;28;20060;-69
2023/05/28 03:38:58;;;;;;;4.95;2.97;;;;;;;18.24;74.56;99385.03;3154056;28;20067;-69
2023/05/28 03:40:30;;;;;;;5.70;2.80;;;;;;;18.24;75.08;99377.13;3141784;28;20052;-70
2023/05/28 03:42:04;;;;;;;6.07;3.60;;;;;;;18.21;75.14;99372.13;3141343;28;20087;-69
2023/05/28 03:43:36;;;;;;;6.25;3.17;;;;;;;18.11;75.35;99377.31;3152823;28;20120;-69
2023/05/28 03:45:09;;;;;;;5.03;3.40;;;;;;;18.11;75.65;99387.03;3153540;28;20056;-69
2023/05/28 03:46:40;;;;;;;6.90;3.33;;;;;;;18.08;75.97;99387.28;3154107;28;20060;-68
2023/05/28 03:48:12;;;;;;;9.57;3.03;;;;;;;18.10;76.32;99390.59;3144593;28;20173;-68
2023/05/28 03:49:43;;;;;;;6.05;3.30;;;;;;;18.09;76.44;99386.31;3146007;28;20544;-69
2023/05/28 03:51:15;;;;;;;4.40;2.97;;;;;;;18.07;76.48;99386.47;3149109;28;20052;-69
2023/05/28 03:52:47;;;;;;;7.30;3.28;;;;;;;18.06;76.51;99383.94;3141044;28;20056;-69
2023/05/28 03:54:19;;;;;;;6.72;3.88;;;;;;;18.00;76.69;99379.19;3144713;28;20060;-69
2023/05/28 03:55:51;;;;;;;6.40;3.22;;;;;;;17.90;76.98;99377.31;3146276;28;20136;-69
2023/05/28 03:57:23;;;;;;;5.97;3.15;;;;;;;17.85;77.36;99376.84;3153637;28;20169;-69
2023/05/28 03:58:55;;;;;;;5.78;3.08;;;;;;;17.79;77.60;99374.72;3149860;28;20295;-70
2023/05/28 04:00:27;;;;;;;8.57;3.10;;;;;;;17.79;77.94;99385.25;3140149;28;20056;-69
2023/05/28 04:01:59;;;;;;;6.60;3.75;;;;;;;17.77;78.18;99388.94;3141454;28;20052;-70
2023/05/28 04:03:30;;;;;;;9.95;3.05;;;;;;;17.74;78.43;99396.09;3141175;28;20518;-69
2023/05/28 04:05:02;;;;;;;4.15;2.90;;;;;;;17.75;78.56;99396.97;3140681;28;20121;-69
2023/05/28 04:06:32;;;;;;;6.20;3.75;;;;;;;17.76;78.53;99388.09;3139978;28;20135;-69
2023/05/28 04:08:04;;;;;;;7.03;3.65;;;;;;;17.76;78.85;99390.72;3141176;28;20053;-68
2023/05/28 04:09:35;;;;;;;5.70;3.80;;;;;;;17.81;79.02;99399.13;3152125;28;20051;-69
2023/05/28 04:11:07;;;;;;;7.43;3.72;;;;;;;17.82;79.26;99397.31;3142666;28;20928;-70
2023/05/28 04:12:41;;;;;;;6.65;3.55;;;;;;;17.82;78.68;99394.69;3140425;28;20068;-68
2023/05/28 04:14:11;;;;;;;;;;;;;;;17.60;79.20;99399.03;3141410;28;20045;-65
2023/05/28 04:15:43;;;;;;;5.05;3.25;;;;;;;17.68;79.39;99404.50;3149598;28;19977;-65
2023/05/28 04:17:15;;;;;;;7.53;4.18;;;;;;;17.74;78.98;99409.28;3153072;28;20101;-65
2023/05/28 04:18:47;;;;;;;10.57;4.10;;;;;;;17.77;78.79;99405.56;3149070;28;20052;-66
2023/05/28 04:20:20;;;;;;;7.10;3.80;;;;;;;17.81;78.72;99417.56;3147274;28;20052;-64
2023/05/28 04:21:52;;;;;;;7.47;3.50;;;;;;;17.82;79.24;99413.97;3140989;28;20361;-64
2023/05/28 04:23:23;;;;;;;5.15;3.65;;;;;;;17.82;78.90;99408.69;3145271;28;20128;-67
2023/05/28 04:24:55;;;;;;;7.75;3.38;;;;;;;17.83;79.07;99415.63;3148501;28;20043;-65
2023/05/28 04:26:27;;;;;;;10.20;3.83;;;;;;;17.84;79.11;99416.50;3153552;28;20048;-63
2023/05/28 04:28:01;;;;;;;6.80;4.13;;;;;;;17.85;79.34;99413.72;3153254;28;20125;-63
2023/05/28 04:29:33;;;;;;;6.82;4.10;;;;;;;17.86;79.59;99418.00;3149502;28;20080;-66
2023/05/28 04:31:05;;;;;;;6.15;3.90;;;;;;;17.89;79.42;99420.38;3149080;28;20048;-65
2023/05/28 04:32:38;;;;;;;5.18;3.45;;;;;;;17.87;79.32;99418.88;3148366;28;20087;-65
2023/05/28 04:34:11;;;;;;;10.02;4.00;;;;;;;17.88;79.42;99425.81;3140865;28;20155;-63
2023/05/28 04:35:43;;;;;;;11.38;4.10;;;;;;;17.80;79.51;99417.69;3148182;28;20048;-64
2023/05/28 04:37:15;;;;;;;8.02;4.13;;;;;;;17.77;79.40;99428.44;3158893;28;20044;-63
2023/05/28 04:38:47;;;;;;;6.40;3.88;;;;;;;17.76;79.56;99432.88;3145805;28;20518;-68
2023/05/28 04:40:21;;;;;;;6.97;4.50;;;;;;;17.74;79.51;99434.78;3157620;28;20151;-67
2023/05/28 04:41:53;;;;;;;5.78;3.85;;;;;;;17.69;79.33;99426.44;3158291;28;20052;-68
2023/05/28 04:43:26;;;;;;;11.43;3.58;;;;;;;17.67;79.44;99431.81;3146023;28;20131;-67
2023/05/28 04:44:58;;;;;;;8.65;3.42;;;;;;;17.66;79.47;99429.31;3150093;28;20207;-68
2023/05/28 04:46:30;;;;;;;8.30;4.60;;;;;;;17.70;79.84;99433.38;3158054;28;20063;-67
2023/05/28 04:48:02;;;;;;;9.13;4.53;;;;;;;17.70;79.85;99436.84;3154721;28;20052;-67
2023/05/28 04:49:34;;;;;;;5.38;3.38;;;;;;;17.66;79.90;99432.78;3158518;28;20070;-69
2023/05/28 04:51:05;;;;;;;7.68;3.70;;;;;;;17.63;79.95;99437.44;3155512;28;20040;-72
2023/05/28 04:52:37;;;;;;;4.95;3.67;;;;;;;17.64;79.95;99442.59;3158264;28;20105;-67
2023/05/28 04:54:09;;;;;;;6.07;3.33;;;;;;;17.62;80.51;99444.50;3148558;28;20056;-70
2023/05/28 04:55:40;;;;;;;5.75;3.45;;;;;;;17.59;80.58;99442.13;3147763;28;20048;-68
2023/05/28 04:57:12;;;;;;;11.73;4.00;;;;;;;17.56;80.79;99437.09;3158062;28;20160;-68
2023/05/28 04:58:46;;;;;;;5.80;4.10;;;;;;;17.51;81.04;99440.13;3158412;28;20056;-71
2023/05/28 05:00:18;;;;;;;6.25;4.65;;;;;;;17.47;81.24;99435.19;3157843;28;20055;-68
2023/05/28 05:01:50;;;;;;;9.43;4.40;;;;;;;17.47;81.53;99446.56;3146963;28;20057;-68
2023/05/28 05:03:21;;;;;;;6.05;4.22;;;;;;;17.48;81.56;99440.34;3145813;28;20056;-67
2023/05/28 05:04:53;;;;;;;7.38;3.97;;;;;;;17.45;81.76;99442.38;3158072;28;20048;-68
2023/05/28 05:06:25;;;;;;;6.78;4.43;;;;;;;17.45;81.98;99440.59;3145707;28;20440;-68
2023/05/28 05:07:57;;;;;;;6.68;4.53;;;;;;;17.47;82.27;99440.47;3156415;28;20052;-68
2023/05/28 05:09:30;;;;;;;7.63;5.18;;;;;;;17.48;82.28;99437.72;3157969;28;20173;-70
2023/05/28 05:11:04;;;;;;;8.52;5.10;;;;;;;17.49;82.32;99443.81;3157797;28;20136;-67
2023/05/28 05:12:36;;;;;;;14.20;4.10;;;;;;;17.50;82.07;99446.31;3158001;28;20052;-67
2023/05/28 05:14:10;;;;;;;58.47;34.45;;;;;;;17.54;82.39;99451.34;3157739;28;20048;-67
2023/05/28 05:15:42;;;;;;;11.68;6.45;;;;;;;17.55;82.27;99447.75;3158021;28;20065;-71
2023/05/28 05:17:13;;;;;;;9.00;4.20;;;;;;;17.58;82.22;99439.63;3157730;28;20066;-72
2023/05/28 05:18:45;;;;;;;7.80;4.22;;;;;;;17.60;82.62;99446.44;3152112;28;20043;-73
2023/05/28 05:20:17;;;;;;;10.07;4.55;;;;;;;17.63;82.22;99440.06;3152373;28;20048;-72
2023/05/28 05:21:49;;;;;;;6.13;4.30;;;;;;;17.64;82.01;99447.03;3144660;28;20060;-69
2023/05/28 05:23:21;;;;;;;7.25;4.07;;;;;;;17.61;82.14;99444.63;3145706;28;20048;-70
2023/05/28 05:24:53;;;;;;;5.80;4.03;;;;;;;17.62;82.05;99441.03;3147819;28;20110;-67
2023/05/28 05:26:25;;;;;;;6.80;4.45;;;;;;;17.63;81.98;99455.88;3157610;28;20055;-73
2023/05/28 05:27:57;;;;;;;7.90;5.00;;;;;;;17.64;82.10;99457.56;3158113;28;20056;-74
2023/05/28 05:29:30;;;;;;;7.03;4.90;;;;;;;17.62;81.88;99448.94;3154855;28;20055;-73
2023/05/28 05:31:02;;;;;;;8.40;5.55;;;;;;;17.62;81.82;99454.19;3145982;28;20441;-67
2023/05/28 05:32:34;;;;;;;7.43;4.50;;;;;;;17.61;82.08;99453.38;3152120;28;20088;-74
2023/05/28 05:34:06;;;;;;;8.32;4.63;;;;;;;17.62;82.23;99459.47;3155292;28;20501;-70
2023/05/28 05:35:38;;;;;;;7.15;4.47;;;;;;;17.61;82.21;99465.69;3147079;28;20048;-73
2023/05/28 05:37:10;;;;;;;6.93;4.25;;;;;;;17.59;82.22;99467.63;3156606;28;20169;-74
2023/05/28 05:38:41;;;;;;;10.73;4.88;;;;;;;17.55;82.56;99471.47;3145213;28;20135;-74
2023/05/28 05:40:14;;;;;;;7.75;4.45;;;;;;;17.52;82.79;99473.38;3157909;28;20536;-71
2023/05/28 05:41:46;;;;;;;6.15;4.43;;;;;;;17.46;82.93;99476.47;3158106;28;20044;-73
2023/05/28 05:43:17;;;;;;;7.95;4.57;;;;;;;17.45;82.99;99472.19;3145715;28;20521;-75
2023/05/28 05:44:51;;;;;;;7.25;4.35;;;;;;;17.48;83.20;99471.09;3144997;28;20231;-73
2023/05/28 05:46:22;;;;;;;6.45;4.80;;;;;;;17.50;83.70;99477.06;3151008;28;20795;-74
2023/05/28 05:47:54;;;;;;;10.15;4.90;;;;;;;17.50;83.77;99472.66;3145383;28;20128;-72
2023/05/28 05:49:24;;;;;;;10.40;5.05;;;;;;;17.55;83.86;99479.34;3154966;28;20040;-75
2023/05/28 05:50:58;;;;;;;7.95;4.70;;;;;;;17.52;83.93;99477.81;3148209;28;20655;-74
2023/05/28 05:52:29;;;;;;;7.95;4.80;;;;;;;17.49;84.05;99481.50;3152786;28;20062;-70
2023/05/28 05:54:01;;;;;;;7.40;4.85;;;;;;;17.52;84.07;99476.00;3149536;28;20052;-76
2023/05/28 05:55:33;;;;;;;9.95;4.93;;;;;;;17.50;84.20;99480.53;3145047;28;20052;-68
2023/05/28 05:57:05;;;;;;;6.57;4.40;;;;;;;17.56;84.10;99481.03;3143572;28;20053;-69
2023/05/28 05:58:37;;;;;;;10.65;5.10;;;;;;;17.59;84.35;99491.31;3145165;28;20513;-68
2023/05/28 06:00:13;;;;;;;9.70;5.35;;;;;;;17.60;84.36;99482.44;3157415;28;20105;-71
2023/05/28 06:01:45;;;;;;;10.20;4.35;;;;;;;17.56;84.51;99481.03;3149668;28;20056;-69
2023/05/28 06:03:17;;;;;;;9.82;5.00;;;;;;;17.52;84.56;99483.91;3145270;28;20060;-71
2023/05/28 06:04:49;;;;;;;7.28;4.30;;;;;;;17.49;84.50;99488.56;3157688;28;20087;-69
2023/05/28 06:06:21;;;;;;;7.28;4.05;;;;;;;17.50;84.66;99484.97;3152395;28;20054;-70
2023/05/28 06:07:52;;;;;;;7.38;4.40;;;;;;;17.51;84.80;99482.22;3135954;28;20117;-64
2023/05/28 06:09:24;;;;;;;7.60;4.82;;;;;;;17.54;84.94;99483.78;3148822;28;20044;-70
2023/05/28 06:10:56;;;;;;;6.95;4.60;;;;;;;17.56;84.92;99491.56;3154681;28;20044;-71
2023/05/28 06:12:28;;;;;;;8.90;4.68;;;;;;;17.56;84.88;99488.91;3154503;28;20050;-68
2023/05/28 06:13:59;;;;;;;9.88;5.45;;;;;;;17.55;84.92;99484.63;3156079;28;20145;-68
2023/05/28 06:15:33;;;;;;;7.60;4.20;;;;;;;17.60;85.11;99487.72;3145409;28;20044;-69
2023/05/28 06:17:04;;;;;;;9.20;4.57;;;;;;;17.61;85.29;99495.50;3146089;28;20056;-70
2023/05/28 06:18:36;;;;;;;6.80;4.28;;;;;;;17.67;85.07;99486.28;3151252;28;20053;-69
2023/05/28 06:20:08;;;;;;;6.50;4.05;;;;;;;17.70;85.41;99486.88;3144741;28;20041;-68
2023/05/28 06:21:40;;;;;;;10.70;5.50;;;;;;;17.70;85.51;99481.59;3153990;28;20086;-70
2023/05/28 06:23:12;;;;;;;9.20;4.80;;;;;;;17.74;85.53;99490.09;3156998;28;20052;-71
2023/05/28 06:24:43;;;;;;;7.35;4.60;;;;;;;17.71;85.07;99477.16;3148232;28;20433;-68
2023/05/28 06:26:14;;;;;;;7.18;4.70;;;;;;;17.76;85.14;99490.81;3144699;28;20048;-68
2023/05/28 06:27:46;;;;;;;6.18;3.95;;;;;;;17.76;85.24;99492.63;3149259;28;20052;-71
2023/05/28 06:29:18;;;;;;;7.03;5.00;;;;;;;17.78;85.34;99491.56;3146469;28;20539;-71
2023/05/28 06:30:52;;;;;;;7.45;4.13;;;;;;;17.79;85.21;99487.13;3150940;28;20052;-69
2023/05/28 06:32:24;;;;;;;5.15;3.70;;;;;;;17.75;85.22;99483.88;3128178;28;20053;-68
2023/05/28 06:33:56;;;;;;;8.85;3.65;;;;;;;17.72;84.86;99489.38;3152577;28;20044;-69
2023/05/28 06:35:29;;;;;;;6.13;4.15;;;;;;;17.70;84.99;99483.41;3127285;28;20064;-70
2023/05/28 06:37:01;;;;;;;5.97;3.53;;;;;;;17.70;85.01;99478.13;3152678;28;20504;-69
2023/05/28 06:38:33;;;;;;;8.23;4.07;;;;;;;17.75;85.41;99468.06;3154329;28;20052;-70
2023/05/28 06:40:06;;;;;;;13.98;4.22;;;;;;;17.79;85.44;99473.97;3143971;28;20048;-70
2023/05/28 06:41:38;;;;;;;7.30;3.80;;;;;;;17.77;85.83;99474.03;3152353;28;20057;-70
2023/05/28 06:43:10;;;;;;;7.45;4.45;;;;;;;17.77;85.76;99486.38;3143620;28;20612;-70
2023/05/28 06:44:42;;;;;;;7.90;4.07;;;;;;;17.71;86.17;99477.16;3150665;28;20588;-69
2023/05/28 06:46:15;;;;;;;7.50;3.97;;;;;;;17.69;86.42;99471.19;3154987;28;20058;-70
2023/05/28 06:47:48;;;;;;;7.05;4.13;;;;;;;17.61;86.73;99473.59;3149803;28;20075;-72
2023/05/28 06:49:20;;;;;;;6.43;3.95;;;;;;;17.61;87.05;99482.34;3148075;28;20052;-74
2023/05/28 06:50:52;;;;;;;9.35;3.67;;;;;;;17.65;87.17;99472.38;3141712;28;20323;-66
2023/05/28 06:52:24;;;;;;;6.20;4.05;;;;;;;17.69;87.38;99476.47;3150626;28;20063;-75
2023/05/28 06:53:56;;;;;;;6.70;3.92;;;;;;;17.73;87.28;99481.34;3153591;28;20507;-74
2023/05/28 06:55:28;;;;;;;6.80;4.28;;;;;;;17.74;87.34;99484.81;3151470;28;20134;-69
2023/05/28 06:57:00;;;;;;;8.25;4.30;;;;;;;17.74;87.47;99483.00;3154075;28;20074;-68
2023/05/28 06:58:32;;;;;;;8.50;3.95;;;;;;;17.77;87.30;99478.47;3149315;28;20056;-72
2023/05/28 07:00:09;;;;;;;9.75;4.40;;;;;;;17.84;87.57;99485.81;3146148;28;20125;-67
2023/05/28 07:01:42;;;;;;;11.63;4.47;;;;;;;17.88;87.27;99484.59;3154027;28;20418;-71
2023/05/28 07:03:14;;;;;;;7.25;3.78;;;;;;;17.93;86.90;99479.78;3149436;28;20048;-68
2023/05/28 07:04:45;;;;;;;8.02;3.72;;;;;;;17.82;87.00;99465.81;3146028;28;20051;-75
2023/05/28 07:06:17;;;;;;;6.70;4.07;;;;;;;17.96;86.85;99489.25;3151145;28;20051;-74
2023/05/28 07:07:49;;;;;;;7.07;3.67;;;;;;;17.92;86.53;99488.66;3141646;28;20135;-74
2023/05/28 07:09:21;;;;;;;5.13;3.22;;;;;;;17.90;86.37;99489.75;3143642;28;20052;-73
2023/05/28 07:10:53;;;;;;;7.25;3.72;;;;;;;17.87;86.57;99487.34;3154387;28;20056;-69
2023/05/28 07:12:25;;;;;;;7.30;3.95;;;;;;;17.87;86.62;99484.72;3150463;28;20074;-73
2023/05/28 07:13:57;;;;;;;6.03;3.20;;;;;;;17.86;86.19;99489.13;3152069;28;20059;-75